sensor_id;sensor_type;location;lat;lon;timestamp;P1;durP1;ratioP1;P2;durP2;ratioP2
48623;SDS011;34422;45.802;16.114;2022-09-20T00:02:21;13.60;;;7.95;;
48623;SDS011;34422;45.802;16.114;2022-09-20T00:04:48;12.75;;;7.55;;
48623;SDS011;34422;45.802;16.114;2022-09-20T00:07:15;12.05;;;7.75;;
48623;SDS011;34422;45.802;16.114;2022-09-20T00:09:41;13.82;;;8.15;;
48623;SDS011;34422;45.802;16.114;2022-09-20T00:12:09;11.05;;;7.53;;
48623;SDS011;34422;45.802;16.114;2022-09-20T00:14:36;14.20;;;8.93;;
48623;SDS011;34422;45.802;16.114;2022-09-20T00:17:03;12.55;;;7.65;;
48623;SDS011;34422;45.802;16.114;2022-09-20T00:19:30;12.30;;;7.60;;
48623;SDS011;34422;45.802;16.114;2022-09-20T00:21:58;36.85;;;10.45;;
48623;SDS011;34422;45.802;16.114;2022-09-20T00:24:25;45.15;;;11.50;;
48623;SDS011;34422;45.802;16.114;2022-09-20T00:26:52;30.77;;;11.05;;
48623;SDS011;34422;45.802;16.114;2022-09-20T00:29:19;24.63;;;10.73;;
48623;SDS011;34422;45.802;16.114;2022-09-20T00:31:46;24.45;;;9.73;;
48623;SDS011;34422;45.802;16.114;2022-09-20T00:34:13;27.73;;;10.07;;
48623;SDS011;34422;45.802;16.114;2022-09-20T00:36:59;24.25;;;10.25;;
48623;SDS011;34422;45.802;16.114;2022-09-20T00:39:27;20.98;;;11.50;;
48623;SDS011;34422;45.802;16.114;2022-09-20T00:41:54;13.85;;;9.70;;
48623;SDS011;34422;45.802;16.114;2022-09-20T00:50:05;15.32;;;9.68;;
48623;SDS011;34422;45.802;16.114;2022-09-20T00:52:41;14.75;;;9.38;;
48623;SDS011;34422;45.802;16.114;2022-09-20T00:55:14;15.85;;;9.48;;
48623;SDS011;34422;45.802;16.114;2022-09-20T00:57:42;13.88;;;9.18;;
48623;SDS011;34422;45.802;16.114;2022-09-20T01:00:11;38.45;;;10.70;;
48623;SDS011;34422;45.802;16.114;2022-09-20T01:02:41;19.65;;;10.25;;
48623;SDS011;34422;45.802;16.114;2022-09-20T01:05:13;27.08;;;11.45;;
48623;SDS011;34422;45.802;16.114;2022-09-20T01:07:41;15.32;;;9.45;;
48623;SDS011;34422;45.802;16.114;2022-09-20T01:10:09;16.58;;;10.77;;
48623;SDS011;34422;45.802;16.114;2022-09-20T01:12:36;16.15;;;9.60;;
48623;SDS011;34422;45.802;16.114;2022-09-20T01:15:06;22.15;;;11.88;;
48623;SDS011;34422;45.802;16.114;2022-09-20T01:17:36;18.92;;;11.07;;
48623;SDS011;34422;45.802;16.114;2022-09-20T01:28:35;19.13;;;11.02;;
48623;SDS011;34422;45.802;16.114;2022-09-20T01:31:12;19.45;;;12.25;;
48623;SDS011;34422;45.802;16.114;2022-09-20T01:36:46;17.98;;;11.50;;
48623;SDS011;34422;45.802;16.114;2022-09-20T01:41:50;15.93;;;10.15;;
48623;SDS011;34422;45.802;16.114;2022-09-20T01:49:51;37.92;;;12.07;;
48623;SDS011;34422;45.802;16.114;2022-09-20T01:52:27;15.65;;;10.05;;
48623;SDS011;34422;45.802;16.114;2022-09-20T02:09:17;14.68;;;8.95;;
48623;SDS011;34422;45.802;16.114;2022-09-20T02:20:55;13.68;;;9.18;;
48623;SDS011;34422;45.802;16.114;2022-09-20T02:26:42;26.70;;;10.45;;
48623;SDS011;34422;45.802;16.114;2022-09-20T02:32:05;15.73;;;8.15;;
48623;SDS011;34422;45.802;16.114;2022-09-20T02:34:54;12.43;;;8.20;;
48623;SDS011;34422;45.802;16.114;2022-09-20T02:40:45;34.95;;;9.00;;
48623;SDS011;34422;45.802;16.114;2022-09-20T02:43:37;42.78;;;11.70;;
48623;SDS011;34422;45.802;16.114;2022-09-20T02:51:42;35.22;;;10.15;;
48623;SDS011;34422;45.802;16.114;2022-09-20T02:57:01;27.27;;;9.90;;
48623;SDS011;34422;45.802;16.114;2022-09-20T02:59:51;11.98;;;9.07;;
48623;SDS011;34422;45.802;16.114;2022-09-20T03:10:43;11.70;;;8.40;;
48623;SDS011;34422;45.802;16.114;2022-09-20T03:13:47;11.18;;;7.63;;
48623;SDS011;34422;45.802;16.114;2022-09-20T03:24:45;39.45;;;11.18;;
48623;SDS011;34422;45.802;16.114;2022-09-20T03:35:29;33.95;;;9.93;;
48623;SDS011;34422;45.802;16.114;2022-09-20T03:38:49;98.03;;;15.90;;
48623;SDS011;34422;45.802;16.114;2022-09-20T03:41:23;143.75;;;17.15;;
48623;SDS011;34422;45.802;16.114;2022-09-20T03:44:09;42.17;;;9.55;;
48623;SDS011;34422;45.802;16.114;2022-09-20T03:46:50;14.88;;;7.80;;
48623;SDS011;34422;45.802;16.114;2022-09-20T04:00:41;33.72;;;9.45;;
48623;SDS011;34422;45.802;16.114;2022-09-20T04:09:33;24.42;;;9.70;;
48623;SDS011;34422;45.802;16.114;2022-09-20T04:11:49;28.40;;;9.63;;
48623;SDS011;34422;45.802;16.114;2022-09-20T04:14:28;14.35;;;9.30;;
48623;SDS011;34422;45.802;16.114;2022-09-20T04:17:17;52.65;;;13.25;;
48623;SDS011;34422;45.802;16.114;2022-09-20T04:20:14;23.73;;;10.13;;
48623;SDS011;34422;45.802;16.114;2022-09-20T04:22:49;24.40;;;10.05;;
48623;SDS011;34422;45.802;16.114;2022-09-20T04:25:20;25.00;;;10.33;;
48623;SDS011;34422;45.802;16.114;2022-09-20T04:27:57;32.53;;;11.05;;
48623;SDS011;34422;45.802;16.114;2022-09-20T04:30:30;15.50;;;9.15;;
48623;SDS011;34422;45.802;16.114;2022-09-20T04:33:04;19.63;;;9.43;;
48623;SDS011;34422;45.802;16.114;2022-09-20T04:39:14;14.82;;;9.02;;
48623;SDS011;34422;45.802;16.114;2022-09-20T04:48:04;27.52;;;11.13;;
48623;SDS011;34422;45.802;16.114;2022-09-20T05:02:36;26.23;;;8.75;;
48623;SDS011;34422;45.802;16.114;2022-09-20T05:13:46;46.75;;;9.65;;
48623;SDS011;34422;45.802;16.114;2022-09-20T05:21:54;21.17;;;8.27;;
48623;SDS011;34422;45.802;16.114;2022-09-20T05:35:29;57.85;;;10.45;;
48623;SDS011;34422;45.802;16.114;2022-09-20T05:43:33;131.35;;;16.45;;
48623;SDS011;34422;45.802;16.114;2022-09-20T05:46:18;100.15;;;13.45;;
48623;SDS011;34422;45.802;16.114;2022-09-20T05:56:54;37.20;;;10.40;;
48623;SDS011;34422;45.802;16.114;2022-09-20T05:59:55;28.65;;;9.65;;
48623;SDS011;34422;45.802;16.114;2022-09-20T06:05:07;18.85;;;8.60;;
48623;SDS011;34422;45.802;16.114;2022-09-20T06:22:00;23.27;;;9.48;;
48623;SDS011;34422;45.802;16.114;2022-09-20T06:24:46;23.67;;;9.43;;
48623;SDS011;34422;45.802;16.114;2022-09-20T06:27:46;28.02;;;9.13;;
48623;SDS011;34422;45.802;16.114;2022-09-20T06:30:28;78.45;;;13.50;;
48623;SDS011;34422;45.802;16.114;2022-09-20T06:33:00;13.47;;;8.10;;
48623;SDS011;34422;45.802;16.114;2022-09-20T06:42:08;53.60;;;10.52;;
48623;SDS011;34422;45.802;16.114;2022-09-20T06:44:36;44.38;;;10.45;;
48623;SDS011;34422;45.802;16.114;2022-09-20T06:47:08;39.08;;;9.20;;
48623;SDS011;34422;45.802;16.114;2022-09-20T06:49:36;32.30;;;9.02;;
48623;SDS011;34422;45.802;16.114;2022-09-20T06:52:03;31.40;;;15.38;;
48623;SDS011;34422;45.802;16.114;2022-09-20T06:54:31;56.15;;;11.90;;
48623;SDS011;34422;45.802;16.114;2022-09-20T06:56:59;11.27;;;7.20;;
48623;SDS011;34422;45.802;16.114;2022-09-20T06:59:28;26.13;;;8.00;;
48623;SDS011;34422;45.802;16.114;2022-09-20T07:01:55;33.40;;;7.97;;
48623;SDS011;34422;45.802;16.114;2022-09-20T07:04:22;17.40;;;7.88;;
48623;SDS011;34422;45.802;16.114;2022-09-20T07:06:50;10.93;;;6.90;;
48623;SDS011;34422;45.802;16.114;2022-09-20T07:09:16;9.50;;;6.50;;
48623;SDS011;34422;45.802;16.114;2022-09-20T07:11:46;11.15;;;6.80;;
48623;SDS011;34422;45.802;16.114;2022-09-20T07:14:13;33.80;;;8.20;;
48623;SDS011;34422;45.802;16.114;2022-09-20T07:16:40;15.95;;;7.07;;
48623;SDS011;34422;45.802;16.114;2022-09-20T07:19:07;8.70;;;6.20;;
48623;SDS011;34422;45.802;16.114;2022-09-20T07:21:34;9.88;;;7.28;;
48623;SDS011;34422;45.802;16.114;2022-09-20T07:24:01;9.63;;;6.80;;
48623;SDS011;34422;45.802;16.114;2022-09-20T07:26:28;18.27;;;7.30;;
48623;SDS011;34422;45.802;16.114;2022-09-20T07:28:59;18.08;;;7.28;;
48623;SDS011;34422;45.802;16.114;2022-09-20T07:31:27;11.63;;;6.38;;
48623;SDS011;34422;45.802;16.114;2022-09-20T07:33:56;9.68;;;6.20;;
48623;SDS011;34422;45.802;16.114;2022-09-20T07:36:24;8.82;;;6.50;;
48623;SDS011;34422;45.802;16.114;2022-09-20T07:38:51;9.63;;;5.60;;
48623;SDS011;34422;45.802;16.114;2022-09-20T07:41:18;23.30;;;6.82;;
48623;SDS011;34422;45.802;16.114;2022-09-20T07:43:48;22.00;;;5.63;;
48623;SDS011;34422;45.802;16.114;2022-09-20T07:46:16;8.40;;;5.72;;
48623;SDS011;34422;45.802;16.114;2022-09-20T07:48:43;22.42;;;5.80;;
48623;SDS011;34422;45.802;16.114;2022-09-20T07:51:10;7.43;;;4.70;;
48623;SDS011;34422;45.802;16.114;2022-09-20T07:53:39;6.97;;;4.68;;
48623;SDS011;34422;45.802;16.114;2022-09-20T07:56:08;8.32;;;4.93;;
48623;SDS011;34422;45.802;16.114;2022-09-20T07:58:37;10.15;;;4.95;;
48623;SDS011;34422;45.802;16.114;2022-09-20T08:01:05;8.05;;;4.60;;
48623;SDS011;34422;45.802;16.114;2022-09-20T08:03:34;7.72;;;4.55;;
48623;SDS011;34422;45.802;16.114;2022-09-20T08:06:02;8.23;;;4.80;;
48623;SDS011;34422;45.802;16.114;2022-09-20T08:08:31;6.40;;;4.55;;
48623;SDS011;34422;45.802;16.114;2022-09-20T08:13:36;7.15;;;4.90;;
48623;SDS011;34422;45.802;16.114;2022-09-20T08:18:32;6.70;;;4.55;;
48623;SDS011;34422;45.802;16.114;2022-09-20T08:21:03;8.30;;;4.80;;
48623;SDS011;34422;45.802;16.114;2022-09-20T08:23:38;7.07;;;4.43;;
48623;SDS011;34422;45.802;16.114;2022-09-20T08:26:07;6.80;;;4.60;;
48623;SDS011;34422;45.802;16.114;2022-09-20T08:28:40;9.00;;;3.75;;
48623;SDS011;34422;45.802;16.114;2022-09-20T08:31:08;7.95;;;4.78;;
48623;SDS011;34422;45.802;16.114;2022-09-20T08:33:37;8.33;;;5.33;;
48623;SDS011;34422;45.802;16.114;2022-09-20T08:36:06;6.80;;;4.78;;
48623;SDS011;34422;45.802;16.114;2022-09-20T08:38:35;7.10;;;4.85;;
48623;SDS011;34422;45.802;16.114;2022-09-20T08:41:03;7.35;;;5.15;;
48623;SDS011;34422;45.802;16.114;2022-09-20T08:43:35;7.75;;;5.93;;
48623;SDS011;34422;45.802;16.114;2022-09-20T08:46:07;8.10;;;5.10;;
48623;SDS011;34422;45.802;16.114;2022-09-20T08:48:39;10.60;;;6.00;;
48623;SDS011;34422;45.802;16.114;2022-09-20T08:51:10;6.72;;;4.97;;
48623;SDS011;34422;45.802;16.114;2022-09-20T08:53:42;9.25;;;5.85;;
48623;SDS011;34422;45.802;16.114;2022-09-20T08:56:12;10.55;;;5.55;;
48623;SDS011;34422;45.802;16.114;2022-09-20T08:58:39;8.80;;;5.53;;
48623;SDS011;34422;45.802;16.114;2022-09-20T09:01:06;6.57;;;4.93;;
48623;SDS011;34422;45.802;16.114;2022-09-20T09:03:39;6.32;;;4.47;;
48623;SDS011;34422;45.802;16.114;2022-09-20T09:06:09;6.55;;;5.10;;
48623;SDS011;34422;45.802;16.114;2022-09-20T09:08:39;8.15;;;5.47;;
48623;SDS011;34422;45.802;16.114;2022-09-20T09:11:13;8.10;;;5.57;;
48623;SDS011;34422;45.802;16.114;2022-09-20T09:16:20;7.13;;;4.82;;
48623;SDS011;34422;45.802;16.114;2022-09-20T09:18:50;6.97;;;5.13;;
48623;SDS011;34422;45.802;16.114;2022-09-20T09:21:18;7.00;;;5.00;;
48623;SDS011;34422;45.802;16.114;2022-09-20T09:26:39;6.82;;;4.97;;
48623;SDS011;34422;45.802;16.114;2022-09-20T09:31:47;8.95;;;6.40;;
48623;SDS011;34422;45.802;16.114;2022-09-20T09:36:52;7.45;;;4.65;;
48623;SDS011;34422;45.802;16.114;2022-09-20T09:39:33;6.90;;;4.55;;
48623;SDS011;34422;45.802;16.114;2022-09-20T09:42:23;6.60;;;3.80;;
48623;SDS011;34422;45.802;16.114;2022-09-20T09:45:08;6.65;;;3.97;;
48623;SDS011;34422;45.802;16.114;2022-09-20T09:47:39;7.60;;;3.67;;
48623;SDS011;34422;45.802;16.114;2022-09-20T09:50:11;4.93;;;3.15;;
48623;SDS011;34422;45.802;16.114;2022-09-20T09:52:58;8.85;;;6.03;;
48623;SDS011;34422;45.802;16.114;2022-09-20T09:55:27;10.18;;;7.90;;
48623;SDS011;34422;45.802;16.114;2022-09-20T09:58:18;5.75;;;3.15;;
48623;SDS011;34422;45.802;16.114;2022-09-20T10:00:49;5.32;;;2.90;;
48623;SDS011;34422;45.802;16.114;2022-09-20T10:08:43;5.05;;;3.17;;
48623;SDS011;34422;45.802;16.114;2022-09-20T10:17:02;6.80;;;3.75;;
48623;SDS011;34422;45.802;16.114;2022-09-20T10:28:11;3.58;;;1.38;;
48623;SDS011;34422;45.802;16.114;2022-09-20T10:31:19;3.33;;;1.45;;
48623;SDS011;34422;45.802;16.114;2022-09-20T10:37:08;4.15;;;1.60;;
48623;SDS011;34422;45.802;16.114;2022-09-20T10:39:53;4.43;;;1.33;;
48623;SDS011;34422;45.802;16.114;2022-09-20T10:45:37;5.22;;;1.60;;
48623;SDS011;34422;45.802;16.114;2022-09-20T10:51:06;4.90;;;1.58;;
48623;SDS011;34422;45.802;16.114;2022-09-20T10:56:41;3.50;;;1.20;;
48623;SDS011;34422;45.802;16.114;2022-09-20T11:02:26;2.67;;;0.85;;
48623;SDS011;34422;45.802;16.114;2022-09-20T11:08:25;3.10;;;1.00;;
48623;SDS011;34422;45.802;16.114;2022-09-20T11:11:06;3.13;;;1.10;;
48623;SDS011;34422;45.802;16.114;2022-09-20T11:16:26;7.55;;;4.50;;
48623;SDS011;34422;45.802;16.114;2022-09-20T11:19:18;3.05;;;1.13;;
48623;SDS011;34422;45.802;16.114;2022-09-20T11:21:53;2.70;;;0.88;;
48623;SDS011;34422;45.802;16.114;2022-09-20T11:24:36;3.60;;;1.00;;
48623;SDS011;34422;45.802;16.114;2022-09-20T11:30:20;4.28;;;1.10;;
48623;SDS011;34422;45.802;16.114;2022-09-20T11:35:33;2.53;;;0.65;;
48623;SDS011;34422;45.802;16.114;2022-09-20T11:38:18;3.28;;;0.70;;
48623;SDS011;34422;45.802;16.114;2022-09-20T11:40:58;3.60;;;1.00;;
48623;SDS011;34422;45.802;16.114;2022-09-20T11:43:46;4.35;;;0.70;;
48623;SDS011;34422;45.802;16.114;2022-09-20T11:46:18;2.35;;;0.90;;
48623;SDS011;34422;45.802;16.114;2022-09-20T11:48:53;2.28;;;0.63;;
48623;SDS011;34422;45.802;16.114;2022-09-20T11:51:47;3.85;;;0.77;;
48623;SDS011;34422;45.802;16.114;2022-09-20T11:57:12;3.47;;;1.52;;
48623;SDS011;34422;45.802;16.114;2022-09-20T12:00:29;2.33;;;0.93;;
48623;SDS011;34422;45.802;16.114;2022-09-20T12:03:01;3.10;;;0.85;;
48623;SDS011;34422;45.802;16.114;2022-09-20T12:05:38;5.13;;;1.38;;
48623;SDS011;34422;45.802;16.114;2022-09-20T12:08:15;3.95;;;0.70;;
48623;SDS011;34422;45.802;16.114;2022-09-20T12:10:54;4.97;;;0.90;;
48623;SDS011;34422;45.802;16.114;2022-09-20T12:13:24;4.22;;;0.80;;
48623;SDS011;34422;45.802;16.114;2022-09-20T12:16:03;4.03;;;0.65;;
48623;SDS011;34422;45.802;16.114;2022-09-20T12:18:45;2.22;;;0.70;;
48623;SDS011;34422;45.802;16.114;2022-09-20T12:21:19;6.25;;;1.00;;
48623;SDS011;34422;45.802;16.114;2022-09-20T12:28:56;1.75;;;0.57;;
48623;SDS011;34422;45.802;16.114;2022-09-20T12:36:37;5.95;;;1.23;;
48623;SDS011;34422;45.802;16.114;2022-09-20T12:49:48;4.53;;;1.20;;
48623;SDS011;34422;45.802;16.114;2022-09-20T13:03:48;3.45;;;1.20;;
48623;SDS011;34422;45.802;16.114;2022-09-20T13:08:55;3.50;;;1.00;;
48623;SDS011;34422;45.802;16.114;2022-09-20T13:14:15;3.00;;;0.80;;
48623;SDS011;34422;45.802;16.114;2022-09-20T13:19:42;2.60;;;0.80;;
48623;SDS011;34422;45.802;16.114;2022-09-20T13:24:43;3.13;;;0.88;;
48623;SDS011;34422;45.802;16.114;2022-09-20T13:27:14;2.47;;;0.90;;
48623;SDS011;34422;45.802;16.114;2022-09-20T13:29:47;6.07;;;0.80;;
48623;SDS011;34422;45.802;16.114;2022-09-20T13:32:22;3.00;;;0.85;;
48623;SDS011;34422;45.802;16.114;2022-09-20T13:40:38;2.67;;;0.93;;
48623;SDS011;34422;45.802;16.114;2022-09-20T13:43:27;2.53;;;0.65;;
48623;SDS011;34422;45.802;16.114;2022-09-20T13:46:05;3.35;;;1.08;;
48623;SDS011;34422;45.802;16.114;2022-09-20T13:48:37;4.63;;;1.00;;
48623;SDS011;34422;45.802;16.114;2022-09-20T13:51:13;2.75;;;0.77;;
48623;SDS011;34422;45.802;16.114;2022-09-20T13:53:43;2.90;;;0.70;;
48623;SDS011;34422;45.802;16.114;2022-09-20T13:56:10;4.20;;;0.88;;
48623;SDS011;34422;45.802;16.114;2022-09-20T13:58:45;5.53;;;1.20;;
48623;SDS011;34422;45.802;16.114;2022-09-20T14:01:21;2.90;;;0.60;;
48623;SDS011;34422;45.802;16.114;2022-09-20T14:03:51;3.03;;;0.90;;
48623;SDS011;34422;45.802;16.114;2022-09-20T14:06:22;3.20;;;1.05;;
48623;SDS011;34422;45.802;16.114;2022-09-20T14:08:54;4.28;;;0.90;;
48623;SDS011;34422;45.802;16.114;2022-09-20T14:11:25;2.22;;;0.82;;
48623;SDS011;34422;45.802;16.114;2022-09-20T14:14:00;6.03;;;1.63;;
48623;SDS011;34422;45.802;16.114;2022-09-20T14:16:32;3.80;;;1.38;;
48623;SDS011;34422;45.802;16.114;2022-09-20T14:19:03;3.65;;;1.42;;
48623;SDS011;34422;45.802;16.114;2022-09-20T14:21:31;3.63;;;1.60;;
48623;SDS011;34422;45.802;16.114;2022-09-20T14:24:05;4.88;;;2.00;;
48623;SDS011;34422;45.802;16.114;2022-09-20T14:26:36;5.03;;;1.98;;
48623;SDS011;34422;45.802;16.114;2022-09-20T14:32:10;3.38;;;1.23;;
48623;SDS011;34422;45.802;16.114;2022-09-20T14:35:03;3.92;;;1.70;;
48623;SDS011;34422;45.802;16.114;2022-09-20T14:40:39;3.50;;;1.23;;
48623;SDS011;34422;45.802;16.114;2022-09-20T14:43:29;3.90;;;1.45;;
48623;SDS011;34422;45.802;16.114;2022-09-20T14:45:59;2.83;;;0.90;;
48623;SDS011;34422;45.802;16.114;2022-09-20T14:48:35;5.70;;;0.90;;
48623;SDS011;34422;45.802;16.114;2022-09-20T14:53:42;3.40;;;0.90;;
48623;SDS011;34422;45.802;16.114;2022-09-20T14:56:10;2.60;;;0.82;;
48623;SDS011;34422;45.802;16.114;2022-09-20T15:01:28;6.13;;;0.98;;
48623;SDS011;34422;45.802;16.114;2022-09-20T15:03:55;3.67;;;1.17;;
48623;SDS011;34422;45.802;16.114;2022-09-20T15:06:24;3.28;;;1.23;;
48623;SDS011;34422;45.802;16.114;2022-09-20T15:08:51;4.65;;;0.93;;
48623;SDS011;34422;45.802;16.114;2022-09-20T15:11:18;3.50;;;0.80;;
48623;SDS011;34422;45.802;16.114;2022-09-20T15:13:45;3.80;;;0.90;;
48623;SDS011;34422;45.802;16.114;2022-09-20T15:16:19;4.68;;;0.95;;
48623;SDS011;34422;45.802;16.114;2022-09-20T15:18:46;4.50;;;1.08;;
48623;SDS011;34422;45.802;16.114;2022-09-20T15:21:13;2.70;;;0.90;;
48623;SDS011;34422;45.802;16.114;2022-09-20T15:23:40;5.07;;;1.08;;
48623;SDS011;34422;45.802;16.114;2022-09-20T15:26:08;5.07;;;1.23;;
48623;SDS011;34422;45.802;16.114;2022-09-20T15:28:36;4.10;;;1.10;;
48623;SDS011;34422;45.802;16.114;2022-09-20T15:31:03;4.32;;;1.30;;
48623;SDS011;34422;45.802;16.114;2022-09-20T15:33:30;3.28;;;1.05;;
48623;SDS011;34422;45.802;16.114;2022-09-20T15:36:00;3.38;;;1.10;;
48623;SDS011;34422;45.802;16.114;2022-09-20T15:38:27;4.75;;;1.10;;
48623;SDS011;34422;45.802;16.114;2022-09-20T15:40:54;4.07;;;1.70;;
48623;SDS011;34422;45.802;16.114;2022-09-20T15:43:22;4.63;;;1.23;;
48623;SDS011;34422;45.802;16.114;2022-09-20T15:45:56;4.07;;;0.88;;
48623;SDS011;34422;45.802;16.114;2022-09-20T15:48:28;4.10;;;1.20;;
48623;SDS011;34422;45.802;16.114;2022-09-20T15:53:23;3.70;;;1.27;;
48623;SDS011;34422;45.802;16.114;2022-09-20T15:55:50;5.88;;;1.10;;
48623;SDS011;34422;45.802;16.114;2022-09-20T15:58:17;3.33;;;0.80;;
48623;SDS011;34422;45.802;16.114;2022-09-20T16:00:44;5.03;;;1.05;;
48623;SDS011;34422;45.802;16.114;2022-09-20T16:03:11;5.88;;;1.05;;
48623;SDS011;34422;45.802;16.114;2022-09-20T16:05:38;3.47;;;0.95;;
48623;SDS011;34422;45.802;16.114;2022-09-20T16:08:08;3.97;;;1.13;;
48623;SDS011;34422;45.802;16.114;2022-09-20T16:10:35;4.88;;;1.30;;
48623;SDS011;34422;45.802;16.114;2022-09-20T16:13:03;7.97;;;2.38;;
48623;SDS011;34422;45.802;16.114;2022-09-20T16:15:33;4.43;;;2.10;;
48623;SDS011;34422;45.802;16.114;2022-09-20T16:17:59;6.03;;;2.35;;
48623;SDS011;34422;45.802;16.114;2022-09-20T16:20:46;4.85;;;2.30;;
48623;SDS011;34422;45.802;16.114;2022-09-20T16:23:12;4.18;;;1.77;;
48623;SDS011;34422;45.802;16.114;2022-09-20T16:25:39;4.65;;;2.10;;
48623;SDS011;34422;45.802;16.114;2022-09-20T16:28:06;6.80;;;1.95;;
48623;SDS011;34422;45.802;16.114;2022-09-20T16:30:32;4.75;;;2.00;;
48623;SDS011;34422;45.802;16.114;2022-09-20T16:32:59;6.68;;;2.28;;
48623;SDS011;34422;45.802;16.114;2022-09-20T16:35:30;5.78;;;2.05;;
48623;SDS011;34422;45.802;16.114;2022-09-20T16:37:59;4.18;;;2.00;;
48623;SDS011;34422;45.802;16.114;2022-09-20T16:40:26;4.80;;;2.15;;
48623;SDS011;34422;45.802;16.114;2022-09-20T16:42:53;5.40;;;2.78;;
48623;SDS011;34422;45.802;16.114;2022-09-20T16:45:21;6.63;;;3.15;;
48623;SDS011;34422;45.802;16.114;2022-09-20T16:47:48;5.88;;;3.47;;
48623;SDS011;34422;45.802;16.114;2022-09-20T16:50:15;5.95;;;2.88;;
48623;SDS011;34422;45.802;16.114;2022-09-20T16:52:42;6.80;;;2.20;;
48623;SDS011;34422;45.802;16.114;2022-09-20T16:55:09;4.93;;;2.08;;
48623;SDS011;34422;45.802;16.114;2022-09-20T16:57:38;5.10;;;2.30;;
48623;SDS011;34422;45.802;16.114;2022-09-20T17:00:05;4.07;;;1.80;;
48623;SDS011;34422;45.802;16.114;2022-09-20T17:02:33;4.15;;;1.80;;
48623;SDS011;34422;45.802;16.114;2022-09-20T17:05:01;4.55;;;1.80;;
48623;SDS011;34422;45.802;16.114;2022-09-20T17:07:28;6.30;;;2.35;;
48623;SDS011;34422;45.802;16.114;2022-09-20T17:09:55;5.57;;;2.17;;
48623;SDS011;34422;45.802;16.114;2022-09-20T17:14:58;4.97;;;2.20;;
48623;SDS011;34422;45.802;16.114;2022-09-20T17:17:25;5.13;;;2.00;;
48623;SDS011;34422;45.802;16.114;2022-09-20T17:19:51;8.98;;;2.22;;
48623;SDS011;34422;45.802;16.114;2022-09-20T17:22:18;4.82;;;1.92;;
48623;SDS011;34422;45.802;16.114;2022-09-20T17:24:45;7.50;;;2.88;;
48623;SDS011;34422;45.802;16.114;2022-09-20T17:27:11;6.30;;;2.67;;
48623;SDS011;34422;45.802;16.114;2022-09-20T17:29:38;5.55;;;2.88;;
48623;SDS011;34422;45.802;16.114;2022-09-20T17:32:05;5.78;;;2.47;;
48623;SDS011;34422;45.802;16.114;2022-09-20T17:34:32;8.90;;;2.20;;
48623;SDS011;34422;45.802;16.114;2022-09-20T17:36:59;4.47;;;1.85;;
48623;SDS011;34422;45.802;16.114;2022-09-20T17:39:26;4.10;;;1.83;;
48623;SDS011;34422;45.802;16.114;2022-09-20T17:41:53;4.32;;;1.42;;
48623;SDS011;34422;45.802;16.114;2022-09-20T17:44:20;4.25;;;1.60;;
48623;SDS011;34422;45.802;16.114;2022-09-20T17:46:47;4.22;;;1.50;;
48623;SDS011;34422;45.802;16.114;2022-09-20T17:49:16;6.22;;;2.28;;
48623;SDS011;34422;45.802;16.114;2022-09-20T17:51:47;9.57;;;4.90;;
48623;SDS011;34422;45.802;16.114;2022-09-20T17:54:16;5.15;;;2.13;;
48623;SDS011;34422;45.802;16.114;2022-09-20T17:56:44;4.40;;;1.67;;
48623;SDS011;34422;45.802;16.114;2022-09-20T17:59:13;5.10;;;2.30;;
48623;SDS011;34422;45.802;16.114;2022-09-20T18:01:42;5.65;;;2.45;;
48623;SDS011;34422;45.802;16.114;2022-09-20T18:04:10;7.40;;;2.63;;
48623;SDS011;34422;45.802;16.114;2022-09-20T18:06:44;37.83;;;27.60;;
48623;SDS011;34422;45.802;16.114;2022-09-20T18:09:16;14.15;;;11.10;;
48623;SDS011;34422;45.802;16.114;2022-09-20T18:11:45;15.02;;;9.57;;
48623;SDS011;34422;45.802;16.114;2022-09-20T18:14:17;15.80;;;10.00;;
48623;SDS011;34422;45.802;16.114;2022-09-20T18:16:45;14.68;;;9.32;;
48623;SDS011;34422;45.802;16.114;2022-09-20T18:19:12;11.63;;;6.80;;
48623;SDS011;34422;45.802;16.114;2022-09-20T18:21:41;10.45;;;3.90;;
48623;SDS011;34422;45.802;16.114;2022-09-20T18:24:09;8.68;;;4.40;;
48623;SDS011;34422;45.802;16.114;2022-09-20T18:26:38;10.25;;;4.07;;
48623;SDS011;34422;45.802;16.114;2022-09-20T18:29:09;8.48;;;3.53;;
48623;SDS011;34422;45.802;16.114;2022-09-20T18:31:55;6.15;;;3.30;;
48623;SDS011;34422;45.802;16.114;2022-09-20T18:34:24;7.60;;;4.50;;
48623;SDS011;34422;45.802;16.114;2022-09-20T18:36:53;10.60;;;5.32;;
48623;SDS011;34422;45.802;16.114;2022-09-20T18:39:25;9.15;;;4.47;;
48623;SDS011;34422;45.802;16.114;2022-09-20T18:42:00;9.38;;;4.00;;
48623;SDS011;34422;45.802;16.114;2022-09-20T18:44:27;6.82;;;3.60;;
48623;SDS011;34422;45.802;16.114;2022-09-20T18:49:26;8.60;;;3.70;;
48623;SDS011;34422;45.802;16.114;2022-09-20T18:51:55;7.95;;;3.25;;
48623;SDS011;34422;45.802;16.114;2022-09-20T18:54:22;6.40;;;2.63;;
48623;SDS011;34422;45.802;16.114;2022-09-20T18:56:49;7.40;;;3.55;;
48623;SDS011;34422;45.802;16.114;2022-09-20T18:59:20;8.57;;;3.25;;
48623;SDS011;34422;45.802;16.114;2022-09-20T19:02:12;6.53;;;3.40;;
48623;SDS011;34422;45.802;16.114;2022-09-20T19:05:20;6.97;;;3.15;;
48623;SDS011;34422;45.802;16.114;2022-09-20T19:21:41;7.07;;;3.38;;
48623;SDS011;34422;45.802;16.114;2022-09-20T19:27:13;7.15;;;3.03;;
48623;SDS011;34422;45.802;16.114;2022-09-20T19:29:40;6.93;;;3.60;;
48623;SDS011;34422;45.802;16.114;2022-09-20T19:32:15;7.57;;;3.33;;
48623;SDS011;34422;45.802;16.114;2022-09-20T19:34:49;7.10;;;2.95;;
48623;SDS011;34422;45.802;16.114;2022-09-20T19:37:29;5.68;;;2.70;;
48623;SDS011;34422;45.802;16.114;2022-09-20T19:42:58;6.25;;;3.28;;
48623;SDS011;34422;45.802;16.114;2022-09-20T19:51:13;5.68;;;3.05;;
48623;SDS011;34422;45.802;16.114;2022-09-20T19:53:42;6.80;;;3.60;;
48623;SDS011;34422;45.802;16.114;2022-09-20T19:56:25;8.48;;;4.13;;
48623;SDS011;34422;45.802;16.114;2022-09-20T19:58:53;8.18;;;3.28;;
48623;SDS011;34422;45.802;16.114;2022-09-20T20:01:22;5.57;;;2.90;;
48623;SDS011;34422;45.802;16.114;2022-09-20T20:03:53;7.60;;;3.17;;
48623;SDS011;34422;45.802;16.114;2022-09-20T20:06:25;7.38;;;3.47;;
48623;SDS011;34422;45.802;16.114;2022-09-20T20:17:38;8.63;;;3.75;;
48623;SDS011;34422;45.802;16.114;2022-09-20T20:23:04;7.95;;;3.50;;
48623;SDS011;34422;45.802;16.114;2022-09-20T20:25:59;6.67;;;3.50;;
48623;SDS011;34422;45.802;16.114;2022-09-20T20:28:28;7.50;;;3.58;;
48623;SDS011;34422;45.802;16.114;2022-09-20T20:30:57;7.07;;;3.60;;
48623;SDS011;34422;45.802;16.114;2022-09-20T20:33:26;7.60;;;3.75;;
48623;SDS011;34422;45.802;16.114;2022-09-20T20:35:54;8.73;;;4.25;;
48623;SDS011;34422;45.802;16.114;2022-09-20T20:38:22;7.28;;;4.20;;
48623;SDS011;34422;45.802;16.114;2022-09-20T20:41:01;7.18;;;4.18;;
48623;SDS011;34422;45.802;16.114;2022-09-20T20:43:30;6.95;;;3.72;;
48623;SDS011;34422;45.802;16.114;2022-09-20T20:46:02;7.00;;;3.55;;
48623;SDS011;34422;45.802;16.114;2022-09-20T20:48:30;5.35;;;3.05;;
48623;SDS011;34422;45.802;16.114;2022-09-20T20:50:58;7.57;;;3.70;;
48623;SDS011;34422;45.802;16.114;2022-09-20T20:53:30;7.43;;;3.75;;
48623;SDS011;34422;45.802;16.114;2022-09-20T20:56:01;6.20;;;3.25;;
48623;SDS011;34422;45.802;16.114;2022-09-20T20:58:31;6.25;;;3.10;;
48623;SDS011;34422;45.802;16.114;2022-09-20T21:01:06;6.80;;;3.55;;
48623;SDS011;34422;45.802;16.114;2022-09-20T21:03:34;8.90;;;3.58;;